createdAt,value
2018-12-21T00:00:38.662Z,7.52
2018-12-21T00:05:34.652Z,7.52
2018-12-21T00:10:30.639Z,7.49
2018-12-21T00:15:26.620Z,7.65
2018-12-21T00:20:22.737Z,7.44
2018-12-21T00:25:18.740Z,7.49
2018-12-21T00:30:16.760Z,7.54
2018-12-21T00:35:18.992Z,7.49
2018-12-21T00:40:21.140Z,7.36
2018-12-21T00:45:19.188Z,7.36
2018-12-21T00:50:15.199Z,7.34
2018-12-21T00:55:11.229Z,7.19
2018-12-21T01:00:11.263Z,7.22
2018-12-21T01:05:07.385Z,7.32
2018-12-21T01:10:03.728Z,7.21
2018-12-21T01:14:59.736Z,7.24
2018-12-21T01:19:56.297Z,7.22
2018-12-21T01:24:52.303Z,7.22
2018-12-21T01:29:48.297Z,7.17
2018-12-21T01:34:44.279Z,7.25
2018-12-21T01:39:40.272Z,7.20
2018-12-21T01:44:36.258Z,7.31
2018-12-21T01:49:32.253Z,7.29
2018-12-21T01:54:28.236Z,7.29
2018-12-21T01:59:24.253Z,7.25
2018-12-21T02:04:20.225Z,7.18
2018-12-21T02:09:16.220Z,7.25
2018-12-21T02:14:12.357Z,7.23
2018-12-21T02:19:08.348Z,7.22
2018-12-21T02:24:04.352Z,7.24
2018-12-21T02:29:00.349Z,7.29
2018-12-21T02:33:56.332Z,7.22
2018-12-21T02:38:52.309Z,7.04
2018-12-21T02:43:48.302Z,7.20
2018-12-21T02:48:44.293Z,7.24
2018-12-21T02:53:40.277Z,7.36
2018-12-21T02:58:36.968Z,7.22
2018-12-21T03:03:32.968Z,7.17
2018-12-21T03:08:28.965Z,7.18
2018-12-21T03:13:24.949Z,7.26
2018-12-21T03:18:20.960Z,7.45
2018-12-21T03:23:16.929Z,7.52
2018-12-21T03:28:13.582Z,7.46
2018-12-21T03:33:09.577Z,7.62
2018-12-21T03:38:05.584Z,7.63
2018-12-21T03:43:01.575Z,7.63
2018-12-21T03:47:57.561Z,7.56
2018-12-21T03:52:53.544Z,7.48
2018-12-21T03:57:51.473Z,7.46
2018-12-21T04:02:47.516Z,7.38
2018-12-21T04:07:43.508Z,7.48
2018-12-21T04:12:39.501Z,7.45
2018-12-21T04:17:35.508Z,7.32
2018-12-21T04:22:34.129Z,7.36
2018-12-21T04:27:36.381Z,7.46
2018-12-21T04:32:32.431Z,7.39
2018-12-21T04:37:28.426Z,7.41
2018-12-21T04:42:24.432Z,7.55
2018-12-21T04:47:20.417Z,7.50
2018-12-21T04:52:16.400Z,7.51
2018-12-21T04:57:12.389Z,7.51
2018-12-21T05:02:08.387Z,7.50
2018-12-21T05:07:12.115Z,7.61
2018-12-21T05:12:02.398Z,7.69
2018-12-21T05:16:58.378Z,7.72
2018-12-21T05:21:54.371Z,7.78
2018-12-21T05:26:50.365Z,7.72
2018-12-21T05:31:46.360Z,7.69
2018-12-21T05:36:42.362Z,7.71
2018-12-21T05:41:39.425Z,7.76
2018-12-21T05:46:35.424Z,7.85
2018-12-21T05:51:31.410Z,7.91
2018-12-21T05:56:27.412Z,7.96
2018-12-21T06:01:23.384Z,8.03
2018-12-21T06:06:19.389Z,8.11
2018-12-21T06:11:15.379Z,8.16
2018-12-21T06:16:12.162Z,8.20
2018-12-21T06:21:10.464Z,8.10
2018-12-21T06:26:09.542Z,8.07
2018-12-21T06:31:10.764Z,8.22
2018-12-21T06:36:10.580Z,8.15
2018-12-21T06:41:07.901Z,7.99
2018-12-21T06:46:13.987Z,7.91
2018-12-21T06:51:07.585Z,7.98
2018-12-21T06:56:05.078Z,8.08
2018-12-21T07:01:02.659Z,8.08
2018-12-21T07:05:59.618Z,8.06
2018-12-21T07:10:55.659Z,8.11
2018-12-21T07:15:51.671Z,8.11
2018-12-21T07:20:47.687Z,8.06
2018-12-21T07:25:43.743Z,8.17
2018-12-21T07:30:39.817Z,8.13
2018-12-21T07:35:35.856Z,8.16
2018-12-21T07:40:31.944Z,8.07
2018-12-21T07:45:27.975Z,8.22
2018-12-21T07:50:24.050Z,8.15
2018-12-21T07:55:20.134Z,8.09
2018-12-21T08:00:16.277Z,8.11
2018-12-21T08:05:12.768Z,8.20
2018-12-21T08:10:11.317Z,8.18
2018-12-21T08:15:08.647Z,8.07
2018-12-21T08:20:05.829Z,8.11
2018-12-21T08:25:01.938Z,8.10
2018-12-21T08:29:58.005Z,8.07
2018-12-21T08:34:54.028Z,8.11
2018-12-21T08:39:50.073Z,8.14
2018-12-21T08:44:46.098Z,7.97
2018-12-21T08:49:42.148Z,7.96
2018-12-21T08:54:38.231Z,7.90
2018-12-21T08:59:34.334Z,7.90
2018-12-21T09:04:32.274Z,7.80
2018-12-21T09:09:28.525Z,7.86
2018-12-21T09:14:24.643Z,7.82
2018-12-21T09:19:20.713Z,7.81
2018-12-21T09:24:18.074Z,7.73
2018-12-21T09:29:15.489Z,7.74
2018-12-21T09:34:13.036Z,7.79
2018-12-21T09:44:23.665Z,7.82
2018-12-21T09:49:22.186Z,7.88
2018-12-21T09:54:20.245Z,7.93
2018-12-21T09:59:28.180Z,7.94
2018-12-21T10:04:34.240Z,7.99
2018-12-21T10:09:32.309Z,8.05
2018-12-21T10:14:35.234Z,8.08
2018-12-21T10:19:37.067Z,8.17
2018-12-21T10:24:40.617Z,8.29
2018-12-21T10:29:42.403Z,8.35
2018-12-21T10:34:41.384Z,8.33
2018-12-21T10:39:43.164Z,8.44
2018-12-21T10:50:08.650Z,8.59
2018-12-21T10:55:08.213Z,8.56
2018-12-21T11:00:10.323Z,8.62
2018-12-21T11:05:08.923Z,8.58
2018-12-21T11:10:10.370Z,8.66
2018-12-21T11:15:09.741Z,8.60
2018-12-21T11:25:20.716Z,8.49
2018-12-21T11:30:20.157Z,8.49
2018-12-21T11:35:20.048Z,8.51
2018-12-21T11:40:19.899Z,8.53
2018-12-21T11:45:18.770Z,8.65
2018-12-21T11:50:15.552Z,8.78
2018-12-21T11:55:13.383Z,8.92
2018-12-21T12:00:10.966Z,9.07
2018-12-21T12:05:08.067Z,9.45
2018-12-21T12:10:07.392Z,9.76
2018-12-21T12:15:06.201Z,10.02
2018-12-21T12:20:05.552Z,10.13
2018-12-21T12:25:04.791Z,10.23
2018-12-21T12:30:07.157Z,10.36
2018-12-21T12:35:06.328Z,10.53
2018-12-21T12:40:03.793Z,10.68
2018-12-21T12:45:03.019Z,10.77
2018-12-21T12:50:00.040Z,10.99
2018-12-21T12:55:02.832Z,11.04
2018-12-21T12:59:56.591Z,11.17
2018-12-21T13:04:52.693Z,11.24
2018-12-21T13:09:50.088Z,11.31
2018-12-21T13:14:47.768Z,11.41
2018-12-21T13:19:45.254Z,11.47
2018-12-21T13:24:42.235Z,11.61
2018-12-21T13:29:40.783Z,11.67
2018-12-21T13:34:39.274Z,11.70
2018-12-21T13:39:39.326Z,11.72
2018-12-21T13:44:37.339Z,11.86
2018-12-21T13:49:34.263Z,11.94
2018-12-21T13:54:31.363Z,12.01
2018-12-21T13:59:28.584Z,12.05
2018-12-21T14:04:25.436Z,12.11
2018-12-21T14:09:23.602Z,12.22
2018-12-21T14:14:24.102Z,12.22
2018-12-21T14:19:24.557Z,12.29
2018-12-21T14:24:25.694Z,12.42
2018-12-21T14:29:24.924Z,12.41
2018-12-21T14:34:21.781Z,12.45
2018-12-21T14:39:20.272Z,12.46
2018-12-21T14:44:18.101Z,12.39
2018-12-21T14:49:16.958Z,12.45
2018-12-21T14:54:17.877Z,12.55
2018-12-21T14:59:16.620Z,12.59
2018-12-21T15:04:15.400Z,12.75
2018-12-21T15:09:13.349Z,12.71
2018-12-21T15:14:15.076Z,12.68
2018-12-21T15:19:18.447Z,12.61
2018-12-21T15:24:21.685Z,12.50
2018-12-21T15:29:19.739Z,12.51
2018-12-21T15:34:17.491Z,12.59
2018-12-21T15:39:20.598Z,12.52
2018-12-21T15:44:18.988Z,12.50
2018-12-21T15:49:18.830Z,12.49
2018-12-21T15:54:17.104Z,12.53
2018-12-21T15:59:21.409Z,12.56
2018-12-21T16:04:20.339Z,12.54
2018-12-21T16:09:24.075Z,12.48
2018-12-21T16:14:22.647Z,12.60
2018-12-21T16:19:19.687Z,12.51
2018-12-21T16:24:18.201Z,12.39
2018-12-21T16:29:17.350Z,12.29
2018-12-21T16:34:15.768Z,12.36
2018-12-21T16:39:12.690Z,12.23
2018-12-21T16:44:10.184Z,12.14
2018-12-21T16:49:10.245Z,12.14
2018-12-21T16:54:10.614Z,12.09
2018-12-21T16:59:08.070Z,12.24
2018-12-21T17:04:04.845Z,12.20
2018-12-21T17:09:02.386Z,12.09
2018-12-21T17:14:01.980Z,12.07
2018-12-21T17:19:00.953Z,11.97
2018-12-21T17:23:58.008Z,11.78
2018-12-21T17:28:55.096Z,11.42
2018-12-21T17:33:52.660Z,11.38
2018-12-21T17:38:53.653Z,11.38
2018-12-21T17:43:52.429Z,11.33
2018-12-21T17:48:51.160Z,11.33
2018-12-21T17:53:50.381Z,11.28
2018-12-21T17:58:52.486Z,11.31
2018-12-21T18:03:51.759Z,11.31
2018-12-21T18:08:48.622Z,11.17
2018-12-21T18:13:51.433Z,10.89
2018-12-21T18:18:49.244Z,10.79
2018-12-21T18:23:47.099Z,10.39
2018-12-21T18:28:45.499Z,10.28
2018-12-21T18:33:43.635Z,10.32
2018-12-21T18:38:42.148Z,10.33
2018-12-21T18:43:40.882Z,10.17
2018-12-21T18:48:38.491Z,10.08
2018-12-21T18:53:37.301Z,10.11
2018-12-21T18:58:35.673Z,10.17
2018-12-21T19:03:33.216Z,10.07
2018-12-21T19:08:30.394Z,10.03
2018-12-21T19:13:27.206Z,10.00
2018-12-21T19:18:24.118Z,10.03
2018-12-21T19:23:20.959Z,9.99
2018-12-21T19:28:20.868Z,9.96
2018-12-21T19:33:17.727Z,9.94
2018-12-21T19:38:14.579Z,9.96
2018-12-21T19:43:11.489Z,10.00
2018-12-21T19:48:08.368Z,9.98
2018-12-21T19:53:04.928Z,9.87
2018-12-21T19:58:04.327Z,9.72
2018-12-21T20:03:01.017Z,9.63
2018-12-21T20:07:58.574Z,9.62
2018-12-21T20:12:55.852Z,9.60
2018-12-21T20:17:51.903Z,9.60
2018-12-21T20:22:47.895Z,9.66
2018-12-21T20:27:47.953Z,9.69
2018-12-21T20:32:44.197Z,9.71
2018-12-21T20:37:40.760Z,9.82
2018-12-21T20:42:37.120Z,9.90
2018-12-21T20:47:33.226Z,9.96
2018-12-21T20:52:29.293Z,10.00
2018-12-21T20:57:25.296Z,10.01
2018-12-21T21:02:21.292Z,10.08
2018-12-21T21:07:17.288Z,10.08
2018-12-21T21:12:13.281Z,9.88
2018-12-21T21:17:09.273Z,9.73
2018-12-21T21:22:05.273Z,9.66
2018-12-21T21:27:01.302Z,9.55
2018-12-21T21:31:57.320Z,9.53
2018-12-21T21:36:53.409Z,9.45
2018-12-21T21:41:49.531Z,9.54
2018-12-21T21:46:52.493Z,9.58
2018-12-21T21:51:48.477Z,9.58
2018-12-21T21:56:44.484Z,9.63
2018-12-21T22:01:41.835Z,9.61
2018-12-21T22:06:45.005Z,9.62
2018-12-21T22:11:41.066Z,9.77
2018-12-21T22:16:37.158Z,9.59
2018-12-21T22:21:33.145Z,9.55
2018-12-21T22:26:29.136Z,9.56
2018-12-21T22:31:25.149Z,9.49
2018-12-21T22:36:21.128Z,9.55
2018-12-21T22:41:17.255Z,9.46
2018-12-21T22:46:13.277Z,9.53
2018-12-21T22:51:09.240Z,9.54
2018-12-21T22:56:05.265Z,9.51
2018-12-21T23:01:01.394Z,9.51
2018-12-21T23:05:57.449Z,9.35
2018-12-21T23:10:53.441Z,9.40
2018-12-21T23:15:49.513Z,9.34
2018-12-21T23:20:45.510Z,9.36
2018-12-21T23:25:41.509Z,9.30
2018-12-21T23:30:37.502Z,9.31
2018-12-21T23:35:33.493Z,9.25
2018-12-21T23:40:29.477Z,9.25
2018-12-21T23:45:25.533Z,9.19
2018-12-21T23:50:21.544Z,9.23
2018-12-21T23:55:17.552Z,9.15
